sensor_id;sensor_type;location;lat;lon;timestamp;P1;durP1;ratioP1;P2;durP2;ratioP2
12725;SDS011;6427;49.754;6.106;2023-04-25T00:00:49;13.50;;;9.30;;
12725;SDS011;6427;49.754;6.106;2023-04-25T00:03:18;12.23;;;9.17;;
12725;SDS011;6427;49.754;6.106;2023-04-25T00:05:45;15.20;;;10.53;;
12725;SDS011;6427;49.754;6.106;2023-04-25T00:08:13;12.60;;;9.43;;
12725;SDS011;6427;49.754;6.106;2023-04-25T00:10:41;11.87;;;9.03;;
12725;SDS011;6427;49.754;6.106;2023-04-25T00:13:08;13.87;;;9.27;;
12725;SDS011;6427;49.754;6.106;2023-04-25T00:15:36;14.57;;;9.87;;
12725;SDS011;6427;49.754;6.106;2023-04-25T00:18:04;14.93;;;9.67;;
12725;SDS011;6427;49.754;6.106;2023-04-25T00:20:32;13.93;;;9.53;;
12725;SDS011;6427;49.754;6.106;2023-04-25T00:23:00;16.77;;;12.88;;
12725;SDS011;6427;49.754;6.106;2023-04-25T00:25:27;15.93;;;10.57;;
12725;SDS011;6427;49.754;6.106;2023-04-25T00:27:55;13.83;;;9.87;;
12725;SDS011;6427;49.754;6.106;2023-04-25T00:30:22;14.77;;;11.48;;
12725;SDS011;6427;49.754;6.106;2023-04-25T00:32:50;13.77;;;9.83;;
12725;SDS011;6427;49.754;6.106;2023-04-25T00:35:17;12.13;;;8.57;;
12725;SDS011;6427;49.754;6.106;2023-04-25T00:37:45;10.53;;;7.80;;
12725;SDS011;6427;49.754;6.106;2023-04-25T00:40:12;9.63;;;7.77;;
12725;SDS011;6427;49.754;6.106;2023-04-25T00:42:41;10.73;;;7.93;;
12725;SDS011;6427;49.754;6.106;2023-04-25T00:45:08;9.23;;;6.97;;
12725;SDS011;6427;49.754;6.106;2023-04-25T00:47:37;11.33;;;7.33;;
12725;SDS011;6427;49.754;6.106;2023-04-25T00:50:04;12.23;;;7.57;;
12725;SDS011;6427;49.754;6.106;2023-04-25T00:52:33;9.60;;;7.03;;
12725;SDS011;6427;49.754;6.106;2023-04-25T00:55:00;10.23;;;7.80;;
12725;SDS011;6427;49.754;6.106;2023-04-25T00:57:28;11.93;;;7.83;;
12725;SDS011;6427;49.754;6.106;2023-04-25T00:59:55;10.90;;;7.43;;
12725;SDS011;6427;49.754;6.106;2023-04-25T01:02:23;9.10;;;5.70;;
12725;SDS011;6427;49.754;6.106;2023-04-25T01:04:51;8.87;;;5.93;;
12725;SDS011;6427;49.754;6.106;2023-04-25T01:07:19;7.93;;;5.70;;
12725;SDS011;6427;49.754;6.106;2023-04-25T01:09:47;7.60;;;5.20;;
12725;SDS011;6427;49.754;6.106;2023-04-25T01:12:15;7.50;;;5.10;;
12725;SDS011;6427;49.754;6.106;2023-04-25T01:14:42;8.73;;;4.93;;
12725;SDS011;6427;49.754;6.106;2023-04-25T01:17:11;6.33;;;4.90;;
12725;SDS011;6427;49.754;6.106;2023-04-25T01:19:38;7.97;;;6.18;;
12725;SDS011;6427;49.754;6.106;2023-04-25T01:22:05;9.57;;;6.33;;
12725;SDS011;6427;49.754;6.106;2023-04-25T01:24:33;7.53;;;6.32;;
12725;SDS011;6427;49.754;6.106;2023-04-25T01:27:00;10.60;;;5.90;;
12725;SDS011;6427;49.754;6.106;2023-04-25T01:29:28;6.43;;;4.70;;
12725;SDS011;6427;49.754;6.106;2023-04-25T01:31:55;8.03;;;5.03;;
12725;SDS011;6427;49.754;6.106;2023-04-25T01:34:23;6.60;;;4.97;;
12725;SDS011;6427;49.754;6.106;2023-04-25T01:36:51;8.20;;;5.33;;
12725;SDS011;6427;49.754;6.106;2023-04-25T01:39:18;7.50;;;4.93;;
12725;SDS011;6427;49.754;6.106;2023-04-25T01:41:46;6.20;;;4.67;;
12725;SDS011;6427;49.754;6.106;2023-04-25T01:44:13;6.00;;;4.50;;
12725;SDS011;6427;49.754;6.106;2023-04-25T01:46:41;7.07;;;5.70;;
12725;SDS011;6427;49.754;6.106;2023-04-25T01:49:08;8.20;;;5.00;;
12725;SDS011;6427;49.754;6.106;2023-04-25T01:51:36;5.23;;;4.27;;
12725;SDS011;6427;49.754;6.106;2023-04-25T01:54:04;5.17;;;4.60;;
12725;SDS011;6427;49.754;6.106;2023-04-25T01:56:32;7.12;;;5.90;;
12725;SDS011;6427;49.754;6.106;2023-04-25T01:58:59;6.27;;;5.13;;
12725;SDS011;6427;49.754;6.106;2023-04-25T02:01:27;6.50;;;5.13;;
12725;SDS011;6427;49.754;6.106;2023-04-25T02:03:55;7.20;;;5.20;;
12725;SDS011;6427;49.754;6.106;2023-04-25T02:06:22;10.90;;;5.67;;
12725;SDS011;6427;49.754;6.106;2023-04-25T02:08:50;9.43;;;5.70;;
12725;SDS011;6427;49.754;6.106;2023-04-25T02:11:18;8.30;;;5.73;;
12725;SDS011;6427;49.754;6.106;2023-04-25T02:13:46;6.97;;;5.23;;
12725;SDS011;6427;49.754;6.106;2023-04-25T02:16:14;9.00;;;5.27;;
12725;SDS011;6427;49.754;6.106;2023-04-25T02:18:42;6.47;;;5.00;;
12725;SDS011;6427;49.754;6.106;2023-04-25T02:21:10;6.70;;;4.63;;
12725;SDS011;6427;49.754;6.106;2023-04-25T02:23:38;5.77;;;4.60;;
12725;SDS011;6427;49.754;6.106;2023-04-25T02:26:05;6.50;;;4.47;;
12725;SDS011;6427;49.754;6.106;2023-04-25T02:28:33;8.27;;;4.93;;
12725;SDS011;6427;49.754;6.106;2023-04-25T02:31:01;6.80;;;4.80;;
12725;SDS011;6427;49.754;6.106;2023-04-25T02:33:29;13.90;;;7.83;;
12725;SDS011;6427;49.754;6.106;2023-04-25T02:35:56;13.47;;;6.80;;
12725;SDS011;6427;49.754;6.106;2023-04-25T02:38:24;7.50;;;5.33;;
12725;SDS011;6427;49.754;6.106;2023-04-25T02:40:52;9.53;;;5.13;;
12725;SDS011;6427;49.754;6.106;2023-04-25T02:43:20;4.90;;;4.23;;
12725;SDS011;6427;49.754;6.106;2023-04-25T02:45:48;7.07;;;4.33;;
12725;SDS011;6427;49.754;6.106;2023-04-25T02:48:16;7.70;;;5.20;;
12725;SDS011;6427;49.754;6.106;2023-04-25T02:50:43;6.53;;;4.70;;
12725;SDS011;6427;49.754;6.106;2023-04-25T02:53:11;6.83;;;4.30;;
12725;SDS011;6427;49.754;6.106;2023-04-25T02:55:39;6.33;;;4.43;;
12725;SDS011;6427;49.754;6.106;2023-04-25T02:58:07;6.13;;;4.20;;
12725;SDS011;6427;49.754;6.106;2023-04-25T03:00:35;5.53;;;4.70;;
12725;SDS011;6427;49.754;6.106;2023-04-25T03:03:02;7.07;;;5.45;;
12725;SDS011;6427;49.754;6.106;2023-04-25T03:05:31;7.10;;;4.53;;
12725;SDS011;6427;49.754;6.106;2023-04-25T03:07:59;6.47;;;3.93;;
12725;SDS011;6427;49.754;6.106;2023-04-25T03:10:27;4.90;;;3.80;;
12725;SDS011;6427;49.754;6.106;2023-04-25T03:12:54;5.50;;;3.83;;
12725;SDS011;6427;49.754;6.106;2023-04-25T03:15:22;5.70;;;4.67;;
12725;SDS011;6427;49.754;6.106;2023-04-25T03:17:50;5.43;;;3.87;;
12725;SDS011;6427;49.754;6.106;2023-04-25T03:20:18;6.40;;;3.70;;
12725;SDS011;6427;49.754;6.106;2023-04-25T03:22:46;6.23;;;4.43;;
12725;SDS011;6427;49.754;6.106;2023-04-25T03:25:13;8.10;;;4.13;;
12725;SDS011;6427;49.754;6.106;2023-04-25T03:27:42;5.80;;;3.90;;
12725;SDS011;6427;49.754;6.106;2023-04-25T03:30:09;5.13;;;3.87;;
12725;SDS011;6427;49.754;6.106;2023-04-25T03:32:37;9.07;;;4.97;;
12725;SDS011;6427;49.754;6.106;2023-04-25T03:35:04;5.67;;;3.87;;
12725;SDS011;6427;49.754;6.106;2023-04-25T03:37:33;5.83;;;4.03;;
12725;SDS011;6427;49.754;6.106;2023-04-25T03:40:01;4.53;;;3.87;;
12725;SDS011;6427;49.754;6.106;2023-04-25T03:42:28;5.50;;;4.23;;
12725;SDS011;6427;49.754;6.106;2023-04-25T03:44:56;5.80;;;4.50;;
12725;SDS011;6427;49.754;6.106;2023-04-25T03:47:24;4.97;;;3.77;;
12725;SDS011;6427;49.754;6.106;2023-04-25T03:49:51;4.97;;;4.07;;
12725;SDS011;6427;49.754;6.106;2023-04-25T03:52:19;5.10;;;3.87;;
12725;SDS011;6427;49.754;6.106;2023-04-25T03:54:46;5.60;;;4.50;;
12725;SDS011;6427;49.754;6.106;2023-04-25T03:57:14;6.90;;;4.87;;
12725;SDS011;6427;49.754;6.106;2023-04-25T03:59:41;7.10;;;4.60;;
12725;SDS011;6427;49.754;6.106;2023-04-25T04:02:10;6.77;;;4.80;;
12725;SDS011;6427;49.754;6.106;2023-04-25T04:04:38;7.87;;;5.20;;
12725;SDS011;6427;49.754;6.106;2023-04-25T04:07:06;7.27;;;4.77;;
12725;SDS011;6427;49.754;6.106;2023-04-25T04:09:33;6.97;;;5.10;;
12725;SDS011;6427;49.754;6.106;2023-04-25T04:12:02;5.70;;;4.33;;
12725;SDS011;6427;49.754;6.106;2023-04-25T04:14:30;5.67;;;4.57;;
12725;SDS011;6427;49.754;6.106;2023-04-25T04:16:58;7.27;;;4.70;;
12725;SDS011;6427;49.754;6.106;2023-04-25T04:19:26;6.40;;;4.73;;
12725;SDS011;6427;49.754;6.106;2023-04-25T04:21:54;6.17;;;4.93;;
12725;SDS011;6427;49.754;6.106;2023-04-25T04:24:23;6.90;;;5.20;;
12725;SDS011;6427;49.754;6.106;2023-04-25T04:26:50;7.23;;;5.30;;
12725;SDS011;6427;49.754;6.106;2023-04-25T04:29:18;6.40;;;5.27;;
12725;SDS011;6427;49.754;6.106;2023-04-25T04:31:47;8.70;;;5.70;;
12725;SDS011;6427;49.754;6.106;2023-04-25T04:34:13;7.47;;;5.50;;
12725;SDS011;6427;49.754;6.106;2023-04-25T04:36:47;6.17;;;5.23;;
12725;SDS011;6427;49.754;6.106;2023-04-25T04:39:12;6.63;;;5.07;;
12725;SDS011;6427;49.754;6.106;2023-04-25T04:41:40;9.17;;;5.43;;
12725;SDS011;6427;49.754;6.106;2023-04-25T04:44:07;6.83;;;5.30;;
12725;SDS011;6427;49.754;6.106;2023-04-25T04:46:36;7.80;;;5.30;;
12725;SDS011;6427;49.754;6.106;2023-04-25T04:49:04;8.07;;;5.53;;
12725;SDS011;6427;49.754;6.106;2023-04-25T04:51:34;7.27;;;5.47;;
12725;SDS011;6427;49.754;6.106;2023-04-25T04:54:02;7.17;;;5.40;;
12725;SDS011;6427;49.754;6.106;2023-04-25T04:56:29;8.97;;;5.73;;
12725;SDS011;6427;49.754;6.106;2023-04-25T04:59:00;9.13;;;7.28;;
12725;SDS011;6427;49.754;6.106;2023-04-25T05:01:28;7.47;;;5.53;;
12725;SDS011;6427;49.754;6.106;2023-04-25T05:03:58;9.67;;;6.17;;
12725;SDS011;6427;49.754;6.106;2023-04-25T05:06:26;7.27;;;5.77;;
12725;SDS011;6427;49.754;6.106;2023-04-25T05:08:53;7.47;;;5.60;;
12725;SDS011;6427;49.754;6.106;2023-04-25T05:11:21;8.20;;;6.10;;
12725;SDS011;6427;49.754;6.106;2023-04-25T05:13:50;9.83;;;6.40;;
12725;SDS011;6427;49.754;6.106;2023-04-25T05:16:17;8.27;;;5.93;;
12725;SDS011;6427;49.754;6.106;2023-04-25T05:18:44;8.40;;;5.70;;
12725;SDS011;6427;49.754;6.106;2023-04-25T05:21:12;12.23;;;8.85;;
12725;SDS011;6427;49.754;6.106;2023-04-25T05:23:39;10.63;;;7.23;;
12725;SDS011;6427;49.754;6.106;2023-04-25T05:26:07;10.90;;;7.23;;
12725;SDS011;6427;49.754;6.106;2023-04-25T05:28:34;11.87;;;7.67;;
12725;SDS011;6427;49.754;6.106;2023-04-25T05:31:02;9.87;;;6.97;;
12725;SDS011;6427;49.754;6.106;2023-04-25T05:33:29;9.03;;;6.50;;
12725;SDS011;6427;49.754;6.106;2023-04-25T05:35:57;8.00;;;6.00;;
12725;SDS011;6427;49.754;6.106;2023-04-25T05:38:25;7.43;;;5.87;;
12725;SDS011;6427;49.754;6.106;2023-04-25T05:40:52;11.77;;;7.68;;
12725;SDS011;6427;49.754;6.106;2023-04-25T05:43:20;9.13;;;6.63;;
12725;SDS011;6427;49.754;6.106;2023-04-25T05:45:47;8.77;;;6.27;;
12725;SDS011;6427;49.754;6.106;2023-04-25T05:48:16;8.80;;;6.40;;
12725;SDS011;6427;49.754;6.106;2023-04-25T05:50:43;10.00;;;6.77;;
12725;SDS011;6427;49.754;6.106;2023-04-25T05:53:12;10.10;;;6.17;;
12725;SDS011;6427;49.754;6.106;2023-04-25T05:55:39;10.30;;;6.50;;
12725;SDS011;6427;49.754;6.106;2023-04-25T05:58:07;10.37;;;6.80;;
12725;SDS011;6427;49.754;6.106;2023-04-25T06:00:35;12.90;;;9.70;;
12725;SDS011;6427;49.754;6.106;2023-04-25T06:03:03;13.07;;;8.53;;
12725;SDS011;6427;49.754;6.106;2023-04-25T06:05:30;13.57;;;8.43;;
12725;SDS011;6427;49.754;6.106;2023-04-25T06:07:58;10.80;;;7.73;;
12725;SDS011;6427;49.754;6.106;2023-04-25T06:10:26;12.17;;;7.93;;
12725;SDS011;6427;49.754;6.106;2023-04-25T06:12:54;13.80;;;7.93;;
12725;SDS011;6427;49.754;6.106;2023-04-25T06:15:21;11.40;;;7.10;;
12725;SDS011;6427;49.754;6.106;2023-04-25T06:17:50;14.10;;;7.50;;
12725;SDS011;6427;49.754;6.106;2023-04-25T06:20:17;14.80;;;6.27;;
12725;SDS011;6427;49.754;6.106;2023-04-25T06:22:45;10.40;;;5.47;;
12725;SDS011;6427;49.754;6.106;2023-04-25T06:25:12;13.40;;;6.33;;
12725;SDS011;6427;49.754;6.106;2023-04-25T06:27:41;15.37;;;5.63;;
12725;SDS011;6427;49.754;6.106;2023-04-25T06:30:09;12.88;;;6.87;;
12725;SDS011;6427;49.754;6.106;2023-04-25T06:32:36;11.80;;;5.77;;
12725;SDS011;6427;49.754;6.106;2023-04-25T06:35:04;12.33;;;6.00;;
12725;SDS011;6427;49.754;6.106;2023-04-25T06:37:32;12.83;;;5.40;;
12725;SDS011;6427;49.754;6.106;2023-04-25T06:40:00;9.37;;;5.30;;
12725;SDS011;6427;49.754;6.106;2023-04-25T06:42:27;12.53;;;5.37;;
12725;SDS011;6427;49.754;6.106;2023-04-25T06:44:55;12.70;;;5.50;;
12725;SDS011;6427;49.754;6.106;2023-04-25T06:47:22;12.03;;;5.23;;
12725;SDS011;6427;49.754;6.106;2023-04-25T06:49:50;14.00;;;5.50;;
12725;SDS011;6427;49.754;6.106;2023-04-25T06:52:18;11.30;;;5.33;;
12725;SDS011;6427;49.754;6.106;2023-04-25T06:54:46;10.03;;;4.90;;
12725;SDS011;6427;49.754;6.106;2023-04-25T06:57:14;11.67;;;5.07;;
12725;SDS011;6427;49.754;6.106;2023-04-25T06:59:42;12.30;;;5.47;;
12725;SDS011;6427;49.754;6.106;2023-04-25T07:02:09;11.23;;;5.20;;
12725;SDS011;6427;49.754;6.106;2023-04-25T07:04:37;13.87;;;6.07;;
12725;SDS011;6427;49.754;6.106;2023-04-25T07:07:04;31.97;;;7.03;;
12725;SDS011;6427;49.754;6.106;2023-04-25T07:09:32;13.65;;;6.60;;
12725;SDS011;6427;49.754;6.106;2023-04-25T07:12:00;10.07;;;5.83;;
12725;SDS011;6427;49.754;6.106;2023-04-25T07:14:27;12.27;;;5.93;;
12725;SDS011;6427;49.754;6.106;2023-04-25T07:16:54;13.73;;;5.40;;
12725;SDS011;6427;49.754;6.106;2023-04-25T07:19:25;11.60;;;5.70;;
12725;SDS011;6427;49.754;6.106;2023-04-25T07:21:53;12.13;;;6.37;;
12725;SDS011;6427;49.754;6.106;2023-04-25T07:24:20;11.57;;;5.80;;
12725;SDS011;6427;49.754;6.106;2023-04-25T07:26:49;12.87;;;5.63;;
12725;SDS011;6427;49.754;6.106;2023-04-25T07:29:16;16.27;;;6.23;;
12725;SDS011;6427;49.754;6.106;2023-04-25T07:31:44;13.30;;;5.73;;
12725;SDS011;6427;49.754;6.106;2023-04-25T07:34:11;10.80;;;5.33;;
12725;SDS011;6427;49.754;6.106;2023-04-25T07:36:39;13.27;;;6.77;;
12725;SDS011;6427;49.754;6.106;2023-04-25T07:39:06;15.10;;;5.97;;
12725;SDS011;6427;49.754;6.106;2023-04-25T07:41:34;13.57;;;6.37;;
12725;SDS011;6427;49.754;6.106;2023-04-25T07:44:01;14.30;;;6.33;;
12725;SDS011;6427;49.754;6.106;2023-04-25T07:46:29;14.87;;;7.28;;
12725;SDS011;6427;49.754;6.106;2023-04-25T07:48:57;10.17;;;6.13;;
12725;SDS011;6427;49.754;6.106;2023-04-25T07:51:24;13.30;;;6.20;;
12725;SDS011;6427;49.754;6.106;2023-04-25T07:53:52;13.97;;;5.63;;
12725;SDS011;6427;49.754;6.106;2023-04-25T07:56:20;11.23;;;5.87;;
12725;SDS011;6427;49.754;6.106;2023-04-25T07:58:48;13.60;;;5.70;;
12725;SDS011;6427;49.754;6.106;2023-04-25T08:01:15;13.13;;;5.53;;
12725;SDS011;6427;49.754;6.106;2023-04-25T08:03:43;13.03;;;5.93;;
12725;SDS011;6427;49.754;6.106;2023-04-25T08:06:10;12.13;;;5.43;;
12725;SDS011;6427;49.754;6.106;2023-04-25T08:08:38;11.00;;;6.93;;
12725;SDS011;6427;49.754;6.106;2023-04-25T08:11:05;18.27;;;5.27;;
12725;SDS011;6427;49.754;6.106;2023-04-25T08:13:33;8.00;;;5.13;;
12725;SDS011;6427;49.754;6.106;2023-04-25T08:16:00;12.97;;;5.47;;
12725;SDS011;6427;49.754;6.106;2023-04-25T08:18:29;12.67;;;5.40;;
12725;SDS011;6427;49.754;6.106;2023-04-25T08:20:56;13.20;;;5.60;;
12725;SDS011;6427;49.754;6.106;2023-04-25T08:23:24;18.37;;;6.20;;
12725;SDS011;6427;49.754;6.106;2023-04-25T08:25:51;17.43;;;6.03;;
12725;SDS011;6427;49.754;6.106;2023-04-25T08:28:19;15.80;;;6.10;;
12725;SDS011;6427;49.754;6.106;2023-04-25T08:30:46;31.03;;;6.50;;
12725;SDS011;6427;49.754;6.106;2023-04-25T08:33:14;12.63;;;5.63;;
12725;SDS011;6427;49.754;6.106;2023-04-25T08:35:42;12.90;;;5.40;;
12725;SDS011;6427;49.754;6.106;2023-04-25T08:38:09;19.73;;;6.30;;
12725;SDS011;6427;49.754;6.106;2023-04-25T08:40:38;12.23;;;5.60;;
12725;SDS011;6427;49.754;6.106;2023-04-25T08:43:08;10.87;;;6.40;;
12725;SDS011;6427;49.754;6.106;2023-04-25T08:45:36;11.57;;;5.37;;
12725;SDS011;6427;49.754;6.106;2023-04-25T08:48:03;11.93;;;5.67;;
12725;SDS011;6427;49.754;6.106;2023-04-25T08:50:31;9.97;;;5.07;;
12725;SDS011;6427;49.754;6.106;2023-04-25T08:52:58;13.57;;;5.87;;
12725;SDS011;6427;49.754;6.106;2023-04-25T08:55:26;13.37;;;5.87;;
12725;SDS011;6427;49.754;6.106;2023-04-25T08:57:53;17.80;;;5.77;;
12725;SDS011;6427;49.754;6.106;2023-04-25T09:00:21;8.17;;;4.43;;
12725;SDS011;6427;49.754;6.106;2023-04-25T09:02:49;10.20;;;4.60;;
12725;SDS011;6427;49.754;6.106;2023-04-25T09:05:16;13.37;;;4.90;;
12725;SDS011;6427;49.754;6.106;2023-04-25T09:07:44;9.93;;;4.77;;
12725;SDS011;6427;49.754;6.106;2023-04-25T09:10:11;7.77;;;4.83;;
12725;SDS011;6427;49.754;6.106;2023-04-25T09:12:39;9.43;;;4.27;;
12725;SDS011;6427;49.754;6.106;2023-04-25T09:15:08;8.20;;;4.67;;
12725;SDS011;6427;49.754;6.106;2023-04-25T09:17:35;10.77;;;4.83;;
12725;SDS011;6427;49.754;6.106;2023-04-25T09:20:06;11.37;;;4.90;;
12725;SDS011;6427;49.754;6.106;2023-04-25T09:22:34;9.40;;;4.17;;
12725;SDS011;6427;49.754;6.106;2023-04-25T09:25:02;8.30;;;4.07;;
12725;SDS011;6427;49.754;6.106;2023-04-25T09:27:48;12.43;;;4.93;;
12725;SDS011;6427;49.754;6.106;2023-04-25T09:30:05;9.43;;;4.17;;
12725;SDS011;6427;49.754;6.106;2023-04-25T09:32:32;6.33;;;3.80;;
12725;SDS011;6427;49.754;6.106;2023-04-25T09:35:00;8.00;;;3.80;;
12725;SDS011;6427;49.754;6.106;2023-04-25T09:37:28;6.13;;;3.63;;
12725;SDS011;6427;49.754;6.106;2023-04-25T09:39:57;8.10;;;3.90;;
12725;SDS011;6427;49.754;6.106;2023-04-25T09:42:24;9.33;;;3.63;;
12725;SDS011;6427;49.754;6.106;2023-04-25T09:44:51;6.40;;;3.40;;
12725;SDS011;6427;49.754;6.106;2023-04-25T09:47:19;8.53;;;3.60;;
12725;SDS011;6427;49.754;6.106;2023-04-25T09:49:46;6.53;;;3.07;;
12725;SDS011;6427;49.754;6.106;2023-04-25T09:52:15;4.47;;;3.17;;
12725;SDS011;6427;49.754;6.106;2023-04-25T09:54:42;9.50;;;3.33;;
12725;SDS011;6427;49.754;6.106;2023-04-25T09:57:10;7.30;;;3.20;;
12725;SDS011;6427;49.754;6.106;2023-04-25T09:59:44;9.43;;;3.70;;
12725;SDS011;6427;49.754;6.106;2023-04-25T10:02:10;7.87;;;4.20;;
12725;SDS011;6427;49.754;6.106;2023-04-25T10:04:38;6.43;;;3.30;;
12725;SDS011;6427;49.754;6.106;2023-04-25T10:07:06;7.30;;;3.60;;
12725;SDS011;6427;49.754;6.106;2023-04-25T10:09:33;7.40;;;3.93;;
12725;SDS011;6427;49.754;6.106;2023-04-25T10:12:00;6.37;;;3.47;;
12725;SDS011;6427;49.754;6.106;2023-04-25T10:14:29;6.73;;;4.03;;
12725;SDS011;6427;49.754;6.106;2023-04-25T10:16:59;6.77;;;3.57;;
12725;SDS011;6427;49.754;6.106;2023-04-25T10:19:27;11.17;;;3.23;;
12725;SDS011;6427;49.754;6.106;2023-04-25T10:24:25;8.50;;;3.90;;
12725;SDS011;6427;49.754;6.106;2023-04-25T10:26:53;7.03;;;3.20;;
12725;SDS011;6427;49.754;6.106;2023-04-25T10:29:25;8.03;;;3.17;;
12725;SDS011;6427;49.754;6.106;2023-04-25T10:31:48;6.13;;;3.17;;
12725;SDS011;6427;49.754;6.106;2023-04-25T10:34:16;7.47;;;3.23;;
12725;SDS011;6427;49.754;6.106;2023-04-25T10:36:49;8.50;;;2.90;;
12725;SDS011;6427;49.754;6.106;2023-04-25T10:39:12;8.73;;;3.53;;
12725;SDS011;6427;49.754;6.106;2023-04-25T10:41:52;7.03;;;3.10;;
12725;SDS011;6427;49.754;6.106;2023-04-25T10:44:14;5.67;;;2.97;;
12725;SDS011;6427;49.754;6.106;2023-04-25T10:46:42;5.80;;;3.20;;
12725;SDS011;6427;49.754;6.106;2023-04-25T10:49:09;6.33;;;3.10;;
12725;SDS011;6427;49.754;6.106;2023-04-25T10:51:37;5.50;;;3.37;;
12725;SDS011;6427;49.754;6.106;2023-04-25T10:54:05;7.17;;;3.23;;
12725;SDS011;6427;49.754;6.106;2023-04-25T10:59:13;7.40;;;3.20;;
12725;SDS011;6427;49.754;6.106;2023-04-25T11:01:41;5.00;;;3.07;;
12725;SDS011;6427;49.754;6.106;2023-04-25T11:04:23;6.68;;;3.30;;
12725;SDS011;6427;49.754;6.106;2023-04-25T11:07:05;7.83;;;3.50;;
12725;SDS011;6427;49.754;6.106;2023-04-25T11:09:33;8.20;;;3.40;;
12725;SDS011;6427;49.754;6.106;2023-04-25T11:12:00;5.20;;;3.20;;
12725;SDS011;6427;49.754;6.106;2023-04-25T11:14:28;8.07;;;3.43;;
12725;SDS011;6427;49.754;6.106;2023-04-25T11:16:56;7.90;;;3.60;;
12725;SDS011;6427;49.754;6.106;2023-04-25T11:19:24;8.50;;;3.77;;
12725;SDS011;6427;49.754;6.106;2023-04-25T11:21:51;7.23;;;3.27;;
12725;SDS011;6427;49.754;6.106;2023-04-25T11:24:18;7.10;;;3.67;;
12725;SDS011;6427;49.754;6.106;2023-04-25T11:26:47;6.90;;;3.83;;
12725;SDS011;6427;49.754;6.106;2023-04-25T11:29:17;16.12;;;4.85;;
12725;SDS011;6427;49.754;6.106;2023-04-25T11:31:44;9.25;;;4.10;;
12725;SDS011;6427;49.754;6.106;2023-04-25T11:34:16;9.18;;;4.35;;
12725;SDS011;6427;49.754;6.106;2023-04-25T11:36:39;22.17;;;5.50;;
12725;SDS011;6427;49.754;6.106;2023-04-25T11:39:07;9.57;;;3.83;;
12725;SDS011;6427;49.754;6.106;2023-04-25T11:41:34;7.90;;;3.80;;
12725;SDS011;6427;49.754;6.106;2023-04-25T11:44:02;8.23;;;3.37;;
12725;SDS011;6427;49.754;6.106;2023-04-25T11:46:30;8.20;;;2.80;;
12725;SDS011;6427;49.754;6.106;2023-04-25T11:48:58;5.40;;;3.47;;
12725;SDS011;6427;49.754;6.106;2023-04-25T11:51:25;8.30;;;2.97;;
12725;SDS011;6427;49.754;6.106;2023-04-25T11:53:53;10.20;;;3.40;;
12725;SDS011;6427;49.754;6.106;2023-04-25T11:56:20;8.23;;;3.00;;
12725;SDS011;6427;49.754;6.106;2023-04-25T11:58:55;5.83;;;2.83;;
12725;SDS011;6427;49.754;6.106;2023-04-25T12:01:31;7.57;;;3.20;;
12725;SDS011;6427;49.754;6.106;2023-04-25T12:03:58;7.83;;;2.83;;
12725;SDS011;6427;49.754;6.106;2023-04-25T12:06:28;9.03;;;3.03;;
12725;SDS011;6427;49.754;6.106;2023-04-25T12:09:02;6.63;;;3.40;;
12725;SDS011;6427;49.754;6.106;2023-04-25T12:11:30;5.53;;;2.90;;
12725;SDS011;6427;49.754;6.106;2023-04-25T12:14:01;5.93;;;3.30;;
12725;SDS011;6427;49.754;6.106;2023-04-25T12:16:24;7.17;;;3.40;;
12725;SDS011;6427;49.754;6.106;2023-04-25T12:18:52;12.20;;;3.60;;
12725;SDS011;6427;49.754;6.106;2023-04-25T12:21:20;8.10;;;2.77;;
12725;SDS011;6427;49.754;6.106;2023-04-25T12:23:48;7.63;;;2.93;;
12725;SDS011;6427;49.754;6.106;2023-04-25T12:26:17;9.10;;;3.30;;
12725;SDS011;6427;49.754;6.106;2023-04-25T12:28:44;6.62;;;3.33;;
12725;SDS011;6427;49.754;6.106;2023-04-25T12:31:11;7.93;;;3.00;;
12725;SDS011;6427;49.754;6.106;2023-04-25T12:33:39;5.97;;;2.60;;
12725;SDS011;6427;49.754;6.106;2023-04-25T12:36:06;4.43;;;2.50;;
12725;SDS011;6427;49.754;6.106;2023-04-25T12:38:43;5.37;;;2.57;;
12725;SDS011;6427;49.754;6.106;2023-04-25T12:41:07;4.40;;;2.13;;
12725;SDS011;6427;49.754;6.106;2023-04-25T12:43:34;9.97;;;2.87;;
12725;SDS011;6427;49.754;6.106;2023-04-25T12:46:02;6.23;;;1.90;;
12725;SDS011;6427;49.754;6.106;2023-04-25T12:48:29;5.17;;;2.47;;
12725;SDS011;6427;49.754;6.106;2023-04-25T12:50:57;6.13;;;2.57;;
12725;SDS011;6427;49.754;6.106;2023-04-25T12:53:25;4.10;;;2.63;;
12725;SDS011;6427;49.754;6.106;2023-04-25T12:55:52;5.10;;;2.77;;
12725;SDS011;6427;49.754;6.106;2023-04-25T12:58:20;6.27;;;2.87;;
12725;SDS011;6427;49.754;6.106;2023-04-25T13:00:47;3.67;;;2.30;;
12725;SDS011;6427;49.754;6.106;2023-04-25T13:03:15;7.10;;;2.90;;
12725;SDS011;6427;49.754;6.106;2023-04-25T13:05:42;9.97;;;2.73;;
12725;SDS011;6427;49.754;6.106;2023-04-25T13:08:10;7.10;;;2.70;;
12725;SDS011;6427;49.754;6.106;2023-04-25T13:10:38;6.67;;;2.60;;
12725;SDS011;6427;49.754;6.106;2023-04-25T13:13:06;3.93;;;2.60;;
12725;SDS011;6427;49.754;6.106;2023-04-25T13:15:33;6.70;;;2.53;;
12725;SDS011;6427;49.754;6.106;2023-04-25T13:18:01;6.33;;;2.33;;
12725;SDS011;6427;49.754;6.106;2023-04-25T13:20:29;6.93;;;2.57;;
12725;SDS011;6427;49.754;6.106;2023-04-25T13:22:56;4.60;;;2.20;;
12725;SDS011;6427;49.754;6.106;2023-04-25T13:25:27;5.43;;;2.47;;
12725;SDS011;6427;49.754;6.106;2023-04-25T13:28:00;7.03;;;2.40;;
12725;SDS011;6427;49.754;6.106;2023-04-25T13:30:38;8.70;;;2.60;;
12725;SDS011;6427;49.754;6.106;2023-04-25T13:33:06;6.37;;;2.60;;
12725;SDS011;6427;49.754;6.106;2023-04-25T13:35:40;6.13;;;2.13;;
12725;SDS011;6427;49.754;6.106;2023-04-25T13:38:08;6.23;;;2.07;;
12725;SDS011;6427;49.754;6.106;2023-04-25T13:40:39;5.10;;;2.23;;
12725;SDS011;6427;49.754;6.106;2023-04-25T13:43:11;4.70;;;2.23;;
12725;SDS011;6427;49.754;6.106;2023-04-25T13:45:36;3.13;;;1.90;;
12725;SDS011;6427;49.754;6.106;2023-04-25T13:48:04;4.10;;;2.20;;
12725;SDS011;6427;49.754;6.106;2023-04-25T13:50:34;6.23;;;2.33;;
12725;SDS011;6427;49.754;6.106;2023-04-25T13:53:02;7.07;;;2.10;;
12725;SDS011;6427;49.754;6.106;2023-04-25T13:55:33;5.53;;;2.50;;
12725;SDS011;6427;49.754;6.106;2023-04-25T13:58:00;5.27;;;2.17;;
12725;SDS011;6427;49.754;6.106;2023-04-25T14:00:32;4.87;;;1.90;;
12725;SDS011;6427;49.754;6.106;2023-04-25T14:02:57;8.43;;;2.13;;
12725;SDS011;6427;49.754;6.106;2023-04-25T14:05:28;7.37;;;2.23;;
12725;SDS011;6427;49.754;6.106;2023-04-25T14:08:08;4.67;;;2.03;;
12725;SDS011;6427;49.754;6.106;2023-04-25T14:10:40;4.73;;;1.93;;
12725;SDS011;6427;49.754;6.106;2023-04-25T14:13:12;5.77;;;2.17;;
12725;SDS011;6427;49.754;6.106;2023-04-25T14:15:40;5.23;;;2.03;;
12725;SDS011;6427;49.754;6.106;2023-04-25T14:18:21;5.07;;;1.97;;
12725;SDS011;6427;49.754;6.106;2023-04-25T14:20:49;6.30;;;2.17;;
12725;SDS011;6427;49.754;6.106;2023-04-25T14:23:18;5.60;;;2.03;;
12725;SDS011;6427;49.754;6.106;2023-04-25T14:25:47;6.43;;;2.37;;
12725;SDS011;6427;49.754;6.106;2023-04-25T14:28:20;4.00;;;1.90;;
12725;SDS011;6427;49.754;6.106;2023-04-25T14:30:48;7.13;;;2.33;;
12725;SDS011;6427;49.754;6.106;2023-04-25T14:33:15;3.97;;;2.00;;
12725;SDS011;6427;49.754;6.106;2023-04-25T14:35:43;3.30;;;1.67;;
12725;SDS011;6427;49.754;6.106;2023-04-25T14:38:14;7.87;;;2.17;;
12725;SDS011;6427;49.754;6.106;2023-04-25T14:40:42;4.17;;;1.90;;
12725;SDS011;6427;49.754;6.106;2023-04-25T14:43:10;4.80;;;2.60;;
12725;SDS011;6427;49.754;6.106;2023-04-25T14:45:38;3.93;;;2.30;;
12725;SDS011;6427;49.754;6.106;2023-04-25T14:48:06;5.60;;;2.00;;
12725;SDS011;6427;49.754;6.106;2023-04-25T14:50:34;4.97;;;2.60;;
12725;SDS011;6427;49.754;6.106;2023-04-25T14:53:04;5.73;;;2.23;;
12725;SDS011;6427;49.754;6.106;2023-04-25T14:55:32;4.83;;;1.90;;
12725;SDS011;6427;49.754;6.106;2023-04-25T14:57:59;2.67;;;1.77;;
12725;SDS011;6427;49.754;6.106;2023-04-25T15:00:28;5.10;;;2.58;;
12725;SDS011;6427;49.754;6.106;2023-04-25T15:02:59;5.30;;;2.80;;
12725;SDS011;6427;49.754;6.106;2023-04-25T15:05:28;5.70;;;2.60;;
12725;SDS011;6427;49.754;6.106;2023-04-25T15:07:56;2.87;;;1.87;;